Time;durP1;ratioP1;P1;durP2;ratioP2;P2;SDS_P1;SDS_P2;PMS_P1;PMS_P2;Temp;Humidity;BMP_temperature;BMP_pressure;BME280_temperature;BME280_humidity;BME280_pressure;Samples;Min_cycle;Max_cycle;Signal;HPM_P1;HPM_P2
2022/02/05 00:02:29;;;;;;;84.17;42.33;;;;;;;1.38;59.12;94095.66;1648883;85;21012;-55
2022/02/05 00:04:53;;;;;;;90.77;45.75;;;;;;;1.43;58.77;94094.41;1653102;85;21082;-56
2022/02/05 00:07:20;;;;;;;75.37;37.50;;;;;;;1.48;58.76;94089.33;1680911;84;21805;-55
2022/02/05 00:39:55;;;;;;;56.73;32.13;;;;;;;2.00;57.05;94089.23;1650982;87;20971;-55
2022/02/05 00:42:27;;;;;;;55.98;29.67;;;;;;;1.98;57.42;94078.03;1649400;86;21460;-55
2022/02/05 00:44:39;;;;;;;63.23;33.85;;;;;;;2.00;57.30;94073.72;1703572;83;21447;-55
2022/02/05 00:47:06;;;;;;;75.72;38.75;;;;;;;2.03;57.29;94073.50;1708327;83;21105;-55
2022/02/05 00:49:33;;;;;;;81.55;38.50;;;;;;;2.01;57.38;94058.23;1710839;83;21403;-54
2022/02/05 00:52:08;;;;;;;79.37;38.95;;;;;;;2.03;57.27;94058.58;1717776;83;20870;-55
2022/02/05 00:54:28;;;;;;;59.98;31.07;;;;;;;2.00;57.07;94051.27;1711169;83;21435;-56
2022/02/05 00:59:27;;;;;;;23.00;13.88;;;;;;;1.89;56.71;94043.28;1707554;83;21151;-55
2022/02/05 01:01:54;;;;;;;27.40;15.15;;;;;;;1.85;56.20;94048.57;1705207;83;21137;-56
2022/02/05 01:04:20;;;;;;;32.55;17.52;;;;;;;1.87;56.29;94035.38;1689054;83;21055;-55
2022/02/05 01:06:47;;;;;;;27.67;16.42;;;;;;;1.89;56.40;94042.50;1657700;84;21062;-56
2022/02/05 01:09:20;;;;;;;32.55;17.85;;;;;;;1.96;56.44;94044.53;1708450;83;21010;-55
2022/02/05 01:11:43;;;;;;;44.75;21.77;;;;;;;2.07;56.30;94040.31;1706170;83;21125;-55
2022/02/05 01:14:12;;;;;;;51.08;25.55;;;;;;;2.12;55.91;94035.19;1706377;83;20939;-56
2022/02/05 01:19:17;;;;;;;58.75;29.92;;;;;;;1.94;56.12;94031.22;1715408;83;20899;-54
2022/02/05 01:21:45;;;;;;;55.73;30.25;;;;;;;1.87;56.86;94022.59;1706792;83;21464;-55
2022/02/05 01:24:09;;;;;;;52.15;27.70;;;;;;;1.86;56.68;94015.64;1706448;83;21118;-56
2022/02/05 01:26:40;;;;;;;54.67;26.57;;;;;;;1.87;56.76;94018.53;1710136;83;21450;-54
2022/02/05 01:29:20;;;;;;;50.55;26.05;;;;;;;1.88;56.64;94009.22;1708028;83;20923;-53
2022/02/05 01:31:42;;;;;;;57.75;26.40;;;;;;;1.91;56.44;94004.33;1678412;84;20946;-55
2022/02/05 01:34:14;;;;;;;59.10;29.65;;;;;;;1.93;56.24;94014.17;1704586;83;20876;-55
2022/02/05 01:39:28;;;;;;;59.75;28.57;;;;;;;1.85;56.37;94005.19;1705045;83;21818;-55
2022/02/05 01:50:26;;;;;;;89.97;41.88;;;;;;;1.66;56.12;94004.50;1705322;83;21415;-54
2022/02/05 02:06:35;;;;;;;47.27;25.15;;;;;;;1.55;56.50;93992.27;1704605;83;20852;-55
2022/02/05 02:16:27;;;;;;;44.08;23.15;;;;;;;1.49;56.63;93990.59;1683283;84;21494;-55
2022/02/05 02:21:32;;;;;;;47.38;23.00;;;;;;;1.36;57.00;93993.66;1650588;84;21642;-56
2022/02/05 02:24:02;;;;;;;41.33;23.07;;;;;;;1.41;56.87;93997.88;1661062;84;20981;-55
2022/02/05 02:29:06;;;;;;;53.05;28.38;;;;;;;1.41;57.17;93999.22;1694206;84;21134;-55
2022/02/05 02:31:31;;;;;;;54.40;29.42;;;;;;;1.41;57.23;94000.01;1689805;84;21417;-55
2022/02/05 02:33:57;;;;;;;79.82;38.33;;;;;;;1.40;57.29;93997.13;1698310;83;20922;-54
2022/02/05 02:39:09;;;;;;;50.90;25.68;;;;;;;1.32;57.17;94003.78;1685590;84;20871;-55
2022/02/05 02:41:37;;;;;;;66.25;33.45;;;;;;;1.26;57.39;94003.28;1695110;84;21130;-56
2022/02/05 02:43:58;;;;;;;78.07;38.95;;;;;;;1.18;57.78;94010.72;1693641;83;20897;-55
2022/02/05 02:46:25;;;;;;;74.20;38.80;;;;;;;0.99;58.60;94004.56;1704167;83;20912;-55
2022/02/05 02:48:52;;;;;;;71.90;36.88;;;;;;;0.91;58.95;94005.83;1692815;84;21548;-54
2022/02/05 02:56:59;;;;;;;81.65;41.60;;;;;;;0.88;59.31;94008.00;1688775;84;20887;-54
2022/02/05 02:59:27;;;;;;;58.48;29.40;;;;;;;1.01;58.98;94016.36;1687676;84;20979;-54
2022/02/05 03:01:59;;;;;;;82.05;38.88;;;;;;;1.07;58.73;94020.15;1687550;84;21035;-56
2022/02/05 03:04:20;;;;;;;67.50;33.65;;;;;;;1.10;58.69;94018.02;1677172;84;20927;-55
2022/02/05 03:06:47;;;;;;;71.33;36.93;;;;;;;1.08;58.60;94019.76;1667842;85;21035;-55
2022/02/05 03:09:14;;;;;;;62.23;34.10;;;;;;;1.09;58.79;94021.30;1661391;84;21074;-54
2022/02/05 03:11:40;;;;;;;55.15;29.82;;;;;;;1.09;58.66;94025.92;1686778;84;20907;-55
2022/02/05 03:14:06;;;;;;;59.73;29.75;;;;;;;1.09;58.54;94032.13;1666932;84;20936;-55
2022/02/05 03:16:36;;;;;;;49.80;27.48;;;;;;;1.11;58.43;94027.67;1662525;84;20999;-55
2022/02/05 03:21:31;;;;;;;55.80;29.40;;;;;;;1.20;58.48;94030.64;1690352;84;21086;-55
2022/02/05 03:23:58;;;;;;;55.38;30.40;;;;;;;1.26;58.25;94039.85;1662690;84;21022;-55
2022/02/05 03:26:24;;;;;;;56.88;29.20;;;;;;;1.29;58.09;94029.58;1689110;83;21431;-55
2022/02/05 03:28:51;;;;;;;73.02;31.82;;;;;;;1.33;57.81;94025.64;1678920;84;21035;-55
2022/02/05 03:31:17;;;;;;;41.60;22.55;;;;;;;1.35;57.61;94035.48;1696310;84;21057;-55
2022/02/05 03:33:44;;;;;;;82.75;40.70;;;;;;;1.26;57.69;94033.08;1673861;84;20976;-55
2022/02/05 03:36:11;;;;;;;83.12;41.68;;;;;;;1.13;58.11;94036.16;1678197;84;20979;-56
2022/02/05 03:38:39;;;;;;;90.53;43.70;;;;;;;0.96;58.75;94037.87;1697650;84;21447;-55
2022/02/05 03:41:05;;;;;;;85.60;41.95;;;;;;;0.85;59.20;94031.03;1697083;83;20940;-55
2022/02/05 03:43:32;;;;;;;83.67;38.90;;;;;;;0.82;59.29;94023.72;1695306;83;21080;-55
2022/02/05 03:45:58;;;;;;;74.53;41.35;;;;;;;0.88;59.46;94022.89;1691326;84;20960;-55
2022/02/05 03:48:25;;;;;;;74.27;39.85;;;;;;;0.87;59.31;94025.41;1697481;84;20919;-55
2022/02/05 03:50:51;;;;;;;69.47;36.95;;;;;;;0.74;59.60;94021.67;1689762;83;20998;-56
2022/02/05 03:53:18;;;;;;;64.32;33.15;;;;;;;0.71;60.00;94022.48;1696609;83;20983;-54
2022/02/05 03:55:46;;;;;;;51.65;29.48;;;;;;;0.79;59.73;94026.64;1670599;84;21159;-54
2022/02/05 03:58:13;;;;;;;57.13;29.72;;;;;;;0.85;59.65;94018.28;1686436;84;21016;-56
2022/02/05 04:00:41;;;;;;;42.15;23.95;;;;;;;1.00;59.63;94015.58;1694247;83;21129;-54
2022/02/05 04:03:07;;;;;;;47.55;25.77;;;;;;;1.13;58.79;93996.28;1693951;84;21112;-56
2022/02/05 04:05:34;;;;;;;51.00;27.60;;;;;;;1.19;58.45;94007.45;1698065;84;20915;-55
2022/02/05 04:08:04;;;;;;;51.85;28.27;;;;;;;1.19;58.19;94012.28;1699814;83;21143;-55
2022/02/05 04:10:32;;;;;;;89.80;40.15;;;;;;;1.08;58.40;94012.20;1694364;84;21062;-55
2022/02/05 04:16:07;;;;;;;72.03;35.28;;;;;;;1.27;58.26;94003.46;1675277;84;21452;-55
2022/02/05 04:18:27;;;;;;;68.35;38.28;;;;;;;1.25;58.71;94001.75;1706468;83;20998;-55
2022/02/05 04:20:53;;;;;;;70.95;35.80;;;;;;;1.34;58.58;93991.95;1679993;84;21071;-56
2022/02/05 04:23:20;;;;;;;79.47;41.90;;;;;;;1.41;58.29;93987.81;1699662;83;20935;-55
2022/02/05 04:25:47;;;;;;;82.20;40.60;;;;;;;1.41;58.71;93986.46;1687829;84;21085;-56
2022/02/05 04:28:14;;;;;;;60.98;29.30;;;;;;;1.48;58.70;93984.25;1697703;83;20937;-55
2022/02/05 04:30:40;;;;;;;46.60;24.25;;;;;;;1.50;58.01;93975.88;1684555;83;21054;-55
2022/02/05 04:33:07;;;;;;;44.27;23.45;;;;;;;1.53;58.00;93970.98;1684211;84;21106;-55
2022/02/05 04:35:33;;;;;;;48.98;26.35;;;;;;;1.56;58.07;93966.70;1670831;85;20986;-56
2022/02/05 04:38:03;;;;;;;55.10;27.60;;;;;;;1.48;58.21;93970.70;1695467;83;21533;-56
2022/02/05 04:40:39;;;;;;;59.75;31.15;;;;;;;1.51;58.05;93973.94;1667429;84;21451;-56
2022/02/05 04:48:44;;;;;;;90.67;42.70;;;;;;;1.30;58.92;93989.88;1696730;83;21059;-55
2022/02/05 04:53:49;;;;;;;100.80;47.62;;;;;;;1.26;58.75;94005.98;1680646;84;20978;-55
2022/02/05 05:01:08;;;;;;;94.58;43.50;;;;;;;0.97;60.09;94006.91;1665586;84;21057;-55
2022/02/05 05:06:30;;;;;;;73.78;36.80;;;;;;;1.15;60.58;93999.95;1686519;84;20999;-55
2022/02/05 05:08:51;;;;;;;78.00;38.92;;;;;;;1.30;60.17;94003.42;1643017;86;20996;-56
2022/02/05 05:21:45;;;;;;;129.38;61.33;;;;;;;1.57;59.06;94011.59;1637742;85;20987;-55
2022/02/05 05:24:12;;;;;;;118.65;58.63;;;;;;;1.38;59.32;94015.73;1634071;87;21771;-55
2022/02/05 05:26:38;;;;;;;120.65;57.62;;;;;;;1.29;59.59;94015.44;1661274;85;21061;-55
2022/02/05 05:29:06;;;;;;;115.35;55.20;;;;;;;1.24;60.01;94017.25;1664911;85;20927;-55
2022/02/05 05:31:34;;;;;;;121.57;58.63;;;;;;;1.24;60.02;94013.76;1669642;86;20955;-56
2022/02/05 05:34:00;;;;;;;119.08;57.95;;;;;;;1.14;60.14;94016.77;1664822;85;21071;-56
2022/02/05 05:36:29;;;;;;;124.35;60.67;;;;;;;1.10;60.24;94013.95;1666220;85;21105;-55
2022/02/05 05:39:02;;;;;;;113.97;56.50;;;;;;;1.17;60.33;94026.80;1662456;85;20980;-56
2022/02/05 05:41:31;;;;;;;108.27;52.78;;;;;;;1.28;60.10;94019.32;1669172;85;21035;-56
2022/02/05 05:46:33;;;;;;;135.43;69.30;;;;;;;1.56;59.75;94027.11;1671164;85;21047;-56
2022/02/05 05:49:12;;;;;;;118.62;65.20;;;;;;;1.58;59.52;94031.53;1670852;84;21855;-55
2022/02/05 05:51:27;;;;;;;125.38;67.22;;;;;;;1.60;59.84;94027.82;1635331;85;20989;-56
2022/02/05 05:53:54;;;;;;;124.27;62.78;;;;;;;1.59;59.59;94034.42;1667834;84;20995;-58
2022/02/05 05:56:22;;;;;;;182.50;105.60;;;;;;;1.47;59.71;94043.08;1647441;85;21059;-59
2022/02/05 05:58:49;;;;;;;151.15;81.00;;;;;;;1.34;60.02;94042.07;1683933;84;20993;-56
2022/02/05 06:01:16;;;;;;;128.65;68.87;;;;;;;1.37;60.37;94050.77;1665641;85;21102;-57
2022/02/05 06:03:43;;;;;;;122.78;65.00;;;;;;;1.44;60.10;94045.82;1676523;84;20958;-56
2022/02/05 06:06:10;;;;;;;156.10;76.57;;;;;;;1.35;60.02;94049.63;1657752;84;20998;-55
2022/02/05 06:08:38;;;;;;;144.87;70.45;;;;;;;1.38;60.13;94046.88;1663982;85;21059;-56
2022/02/05 06:11:07;;;;;;;130.10;68.10;;;;;;;1.49;60.11;94050.81;1668181;85;21459;-56
2022/02/05 06:13:36;;;;;;;142.45;81.87;;;;;;;1.61;59.50;94047.55;1660264;85;21210;-56
2022/02/05 06:16:09;;;;;;;170.75;98.87;;;;;;;1.77;59.22;94059.34;1650773;85;20989;-57
2022/02/05 06:18:35;;;;;;;212.30;106.52;;;;;;;1.91;59.16;94051.78;1662879;85;21460;-57
2022/02/05 06:21:04;;;;;;;258.32;136.82;;;;;;;1.98;59.05;94048.20;1663887;85;20984;-56
2022/02/05 06:23:34;;;;;;;292.43;153.53;;;;;;;2.04;58.97;94043.84;1665580;85;20951;-58
2022/02/05 06:26:03;;;;;;;240.92;129.27;;;;;;;2.17;58.53;94051.00;1642702;86;21207;-56
2022/02/05 06:28:31;;;;;;;197.30;110.32;;;;;;;2.28;58.50;94045.41;1668874;85;21458;-58
2022/02/05 06:30:59;;;;;;;132.70;74.77;;;;;;;2.35;58.27;94033.10;1665532;85;21027;-59
2022/02/05 06:33:28;;;;;;;126.53;71.72;;;;;;;2.37;58.13;94048.37;1665496;85;21015;-57
2022/02/05 06:35:56;;;;;;;118.57;64.32;;;;;;;2.39;58.07;94048.16;1655407;85;21029;-59
2022/02/05 06:38:25;;;;;;;130.27;69.97;;;;;;;2.52;57.83;94044.27;1668903;85;21160;-59
2022/02/05 06:40:53;;;;;;;125.02;69.67;;;;;;;2.62;57.81;94041.95;1666205;85;21003;-58
2022/02/05 06:43:22;;;;;;;118.97;67.12;;;;;;;2.69;57.60;94039.13;1670465;85;21466;-58
2022/02/05 06:45:51;;;;;;;189.82;94.35;;;;;;;2.80;57.59;94036.41;1654412;85;21427;-60
2022/02/05 06:48:19;;;;;;;147.13;78.10;;;;;;;2.85;57.67;94038.63;1669996;86;20925;-58
2022/02/05 06:50:47;;;;;;;140.40;74.77;;;;;;;2.81;57.75;94033.08;1664229;85;21132;-59
2022/02/05 06:53:16;;;;;;;162.82;85.30;;;;;;;2.75;57.50;94032.81;1663964;85;21434;-58
2022/02/05 06:55:45;;;;;;;158.57;82.92;;;;;;;2.71;57.36;94022.58;1633243;85;21045;-58
2022/02/05 06:58:14;;;;;;;137.55;76.82;;;;;;;2.73;57.47;94024.90;1669992;85;21067;-56
2022/02/05 07:00:42;;;;;;;157.70;81.57;;;;;;;2.72;56.90;94022.76;1658695;85;21114;-59
2022/02/05 07:03:16;;;;;;;138.05;75.40;;;;;;;2.72;57.06;94030.91;1662771;85;21069;-56
2022/02/05 07:05:41;;;;;;;139.15;74.72;;;;;;;2.77;56.63;94025.02;1661277;85;21436;-58
2022/02/05 07:16:04;;;;;;;119.30;62.27;;;;;;;3.11;56.32;94033.71;1798428;79;21774;-58
2022/02/05 07:21:10;;;;;;;;;;;;;;;3.35;55.99;94019.45;1760881;81;21172;-57
2022/02/05 07:31:32;;;;;;;232.65;118.75;;;;;;;3.58;55.34;94017.42;1758248;81;20934;-58
2022/02/05 07:34:00;;;;;;;214.53;105.87;;;;;;;3.74;54.99;94019.61;1758040;80;21154;-58
2022/02/05 07:36:29;;;;;;;238.70;120.08;;;;;;;3.79;54.77;94013.66;1758047;81;21588;-58
2022/02/05 07:38:55;;;;;;;252.15;128.60;;;;;;;3.74;55.10;94018.25;1757584;81;20875;-58
2022/02/05 07:41:21;;;;;;;245.85;128.07;;;;;;;3.83;55.32;94015.70;1739352;81;21006;-58
2022/02/05 07:43:48;;;;;;;237.35;121.55;;;;;;;3.90;55.40;94012.82;1739188;81;20978;-57
2022/02/05 07:46:15;;;;;;;238.77;119.87;;;;;;;4.02;55.69;94001.29;1758257;80;21116;-57
2022/02/05 07:48:41;;;;;;;249.02;127.50;;;;;;;4.15;55.55;93995.94;1758112;81;20990;-57
2022/02/05 07:51:09;;;;;;;238.82;119.65;;;;;;;4.34;55.34;94008.13;1758188;81;21094;-57
2022/02/05 07:53:36;;;;;;;234.27;127.72;;;;;;;4.55;54.77;94000.80;1758229;81;21414;-57
2022/02/05 07:56:04;;;;;;;265.48;140.18;;;;;;;4.60;54.36;93991.36;1758192;81;21470;-58
2022/02/05 07:58:32;;;;;;;277.68;148.78;;;;;;;4.52;54.22;93993.49;1758181;81;21846;-60
2022/02/05 08:01:02;;;;;;;296.48;156.18;;;;;;;4.60;54.59;93987.27;1758036;81;20910;-56
2022/02/05 08:03:29;;;;;;;250.75;140.10;;;;;;;4.78;54.64;93978.80;1757876;81;21555;-57
2022/02/05 08:06:00;;;;;;;250.07;138.68;;;;;;;5.02;54.48;93977.41;1758340;80;21446;-58
2022/02/05 08:08:32;;;;;;;213.62;117.97;;;;;;;5.15;54.09;93976.09;1755469;81;21620;-59
2022/02/05 08:11:02;;;;;;;215.25;121.35;;;;;;;5.19;53.98;93970.69;1749719;82;21817;-59
2022/02/05 08:13:27;;;;;;;219.35;123.82;;;;;;;5.22;53.66;93971.21;1720522;82;21407;-57
2022/02/05 08:15:58;;;;;;;226.30;127.02;;;;;;;5.23;53.69;93959.86;1730786;81;20946;-57
2022/02/05 08:18:23;;;;;;;222.35;124.60;;;;;;;5.29;53.75;93964.97;1758322;81;21003;-58
2022/02/05 08:20:50;;;;;;;221.05;120.87;;;;;;;5.37;53.70;93962.78;1729375;81;21018;-60
2022/02/05 08:23:16;;;;;;;327.38;190.73;;;;;;;5.39;53.58;93974.05;1758423;80;21086;-59
2022/02/05 08:25:43;;;;;;;260.23;147.78;;;;;;;5.30;53.31;93968.44;1758523;81;21026;-58
2022/02/05 08:28:09;;;;;;;301.18;170.02;;;;;;;5.29;53.45;93972.36;1704771;81;20978;-59
2022/02/05 08:30:36;;;;;;;273.68;156.75;;;;;;;5.40;53.51;93970.13;1758154;81;21471;-56
2022/02/05 08:33:03;;;;;;;257.43;145.53;;;;;;;5.52;53.55;93980.27;1757488;81;21513;-58
2022/02/05 08:35:31;;;;;;;217.00;128.78;;;;;;;5.72;53.53;93975.40;1757878;80;21940;-58
2022/02/05 08:38:00;;;;;;;226.37;129.47;;;;;;;6.01;53.27;93972.03;1756486;81;21100;-57
2022/02/05 08:40:26;;;;;;;212.53;120.80;;;;;;;6.15;52.80;93973.71;1757063;81;21449;-57
2022/02/05 08:42:52;;;;;;;177.43;103.20;;;;;;;6.10;52.41;93968.03;1757618;81;21501;-57
2022/02/05 08:45:19;;;;;;;181.57;100.25;;;;;;;6.10;52.41;93981.68;1758032;81;21049;-57
2022/02/05 08:47:46;;;;;;;179.68;99.65;;;;;;;6.36;52.26;93995.52;1757617;81;21168;-58
2022/02/05 08:50:12;;;;;;;177.22;98.07;;;;;;;6.50;51.98;93983.52;1757878;81;20982;-56
2022/02/05 08:52:40;;;;;;;156.00;86.63;;;;;;;6.60;51.54;93993.36;1730236;81;21102;-57
2022/02/05 08:55:09;;;;;;;129.20;72.53;;;;;;;6.60;50.58;93989.84;1757962;81;21510;-57
2022/02/05 08:57:39;;;;;;;111.05;58.92;;;;;;;6.36;50.90;93996.88;1728765;81;20922;-57
2022/02/05 09:00:12;;;;;;;111.52;60.55;;;;;;;6.19;51.42;93996.20;1758465;81;21785;-58
2022/02/05 09:05:33;;;;;;;131.82;75.05;;;;;;;6.05;51.85;94009.53;1757908;81;21394;-57
2022/02/05 09:07:45;;;;;;;154.32;81.17;;;;;;;6.13;52.00;94017.69;1754282;81;20934;-60
2022/02/05 09:13:07;;;;;;;109.10;60.63;;;;;;;6.22;52.40;94019.16;1757715;81;22265;-58
2022/02/05 09:15:13;;;;;;;126.05;71.53;;;;;;;6.21;52.00;94029.33;1749587;81;21545;-56
2022/02/05 09:17:40;;;;;;;121.40;65.55;;;;;;;6.19;52.29;94030.95;1749942;82;20970;-57
2022/02/05 09:20:08;;;;;;;88.10;48.85;;;;;;;6.24;52.60;94023.58;1750218;82;20963;-58
2022/02/05 09:22:36;;;;;;;76.87;43.78;;;;;;;6.33;52.98;94015.51;1750191;82;20947;-58
2022/02/05 09:25:05;;;;;;;41.73;26.27;;;;;;;6.39;52.73;94008.29;1750248;82;21335;-57
2022/02/05 09:27:38;;;;;;;65.03;38.95;;;;;;;6.41;52.83;93987.53;1749774;82;20998;-56
2022/02/05 09:30:03;;;;;;;56.00;36.53;;;;;;;6.60;52.72;93995.31;1749197;82;21474;-56
2022/02/05 09:32:28;;;;;;;66.92;39.65;;;;;;;6.83;52.26;93998.45;1698844;82;21422;-56
2022/02/05 09:34:55;;;;;;;77.40;47.88;;;;;;;7.04;51.87;94007.92;1750220;82;20958;-57
2022/02/05 09:37:21;;;;;;;58.98;38.53;;;;;;;7.15;51.60;94004.36;1749595;82;21157;-57
2022/02/05 09:39:48;;;;;;;58.23;35.52;;;;;;;7.50;51.28;93994.91;1750255;82;20886;-57
2022/02/05 09:42:15;;;;;;;49.65;32.80;;;;;;;8.13;50.54;93995.31;1750106;82;21021;-57
2022/02/05 09:44:43;;;;;;;44.33;29.18;;;;;;;8.79;49.35;93987.80;1750005;80;20963;-57
2022/02/05 09:47:10;;;;;;;26.90;18.52;;;;;;;9.36;48.02;93983.62;1749829;82;21490;-59
2022/02/05 09:49:37;;;;;;;14.58;12.28;;;;;;;9.71;46.35;93987.57;1749922;82;21112;-58
2022/02/05 09:52:13;;;;;;;17.62;11.78;;;;;;;9.75;45.60;93983.27;1749857;82;20930;-58
2022/02/05 09:54:35;;;;;;;13.10;10.78;;;;;;;9.68;45.47;93987.12;1748143;82;20863;-58
2022/02/05 09:57:03;;;;;;;12.78;10.38;;;;;;;9.51;45.79;93998.86;1749910;82;21049;-60
2022/02/05 09:59:45;;;;;;;12.50;10.88;;;;;;;9.33;46.11;93992.77;1749926;82;20996;-59
2022/02/05 10:02:25;;;;;;;15.85;12.03;;;;;;;9.14;46.61;93989.09;1746459;82;21168;-58
2022/02/05 10:05:04;;;;;;;22.25;14.90;;;;;;;8.87;47.21;93976.72;1746722;82;21090;-57
2022/02/05 10:07:30;;;;;;;19.77;14.60;;;;;;;8.63;47.84;93955.16;1696775;83;20982;-61
2022/02/05 10:10:00;;;;;;;16.00;12.70;;;;;;;8.64;48.30;93969.02;1719674;83;21426;-58
2022/02/05 10:12:27;;;;;;;18.90;12.78;;;;;;;9.11;47.40;93961.19;1726969;82;21466;-57
2022/02/05 10:14:57;;;;;;;14.90;11.68;;;;;;;9.63;46.56;93959.50;1745412;81;21484;-58
2022/02/05 10:17:45;;;;;;;16.70;11.95;;;;;;;10.05;45.64;93961.73;1726862;82;21546;-57
2022/02/05 10:20:13;;;;;;;14.73;11.55;;;;;;;10.34;44.67;93964.70;1697466;82;21081;-58
2022/02/05 10:22:44;;;;;;;15.60;11.95;;;;;;;10.51;44.14;93971.36;1733843;82;22060;-58
2022/02/05 10:25:17;;;;;;;15.10;11.80;;;;;;;10.48;44.03;93964.78;1730095;82;21028;-58
2022/02/05 10:27:46;;;;;;;15.05;10.90;;;;;;;10.51;44.01;93978.23;1734053;82;21156;-60
2022/02/05 10:30:21;;;;;;;13.75;10.93;;;;;;;10.73;43.50;93975.35;1728767;81;22114;-58
2022/02/05 10:32:50;;;;;;;13.03;9.80;;;;;;;10.96;43.12;93969.88;1720739;82;20973;-63
2022/02/05 10:35:26;;;;;;;10.03;8.15;;;;;;;11.26;42.18;93971.52;1710636;83;21472;-57
2022/02/05 10:38:36;;;;;;;9.33;7.50;;;;;;;11.39;42.09;93961.00;1718861;82;21124;-58
2022/02/05 10:41:01;;;;;;;11.30;8.18;;;;;;;11.43;41.89;93964.96;1706435;83;21801;-57
2022/02/05 10:43:05;;;;;;;12.95;8.98;;;;;;;11.51;41.60;93971.65;1723343;82;21007;-58
2022/02/05 10:45:47;;;;;;;14.28;11.05;;;;;;;11.53;41.66;93961.66;1733197;82;21010;-56
2022/02/05 10:48:19;;;;;;;14.40;11.30;;;;;;;11.47;41.75;93960.80;1733769;82;21020;-56
2022/02/05 10:50:48;;;;;;;23.18;15.13;;;;;;;11.66;41.55;93953.94;1712958;82;20952;-55
2022/02/05 10:53:24;;;;;;;20.43;13.18;;;;;;;12.05;40.80;93954.01;1733822;82;21109;-56
2022/02/05 10:56:04;;;;;;;24.05;14.30;;;;;;;12.27;40.43;93955.75;1708389;82;21120;-57
2022/02/05 10:58:40;;;;;;;21.00;13.20;;;;;;;12.52;40.50;93948.88;1705239;83;21021;-57
2022/02/05 11:07:16;;;;;;;17.25;13.08;;;;;;;12.40;39.55;93947.95;1701713;83;21181;-56
2022/02/05 11:09:53;;;;;;;13.78;10.08;;;;;;;11.94;40.06;93946.17;1706000;84;20990;-57
2022/02/05 11:20:18;;;;;;;14.95;11.93;;;;;;;11.93;40.98;93945.39;1691181;83;22333;-57
2022/02/05 11:22:50;;;;;;;27.40;24.72;;;;;;;12.08;40.27;93928.24;1691482;84;21000;-57
2022/02/05 11:25:18;;;;;;;15.13;13.62;;;;;;;12.00;40.33;93924.97;1691437;84;20934;-55
2022/02/05 11:27:50;;;;;;;11.18;9.88;;;;;;;11.87;40.75;93927.27;1647403;84;21043;-57
2022/02/05 11:30:34;;;;;;;11.45;8.88;;;;;;;11.91;40.60;93954.76;1704277;82;20958;-58
2022/02/05 11:33:06;;;;;;;10.72;8.78;;;;;;;11.85;40.52;93984.22;1706942;82;21147;-61
2022/02/05 11:35:58;;;;;;;12.10;9.63;;;;;;;12.01;41.01;93982.39;1704584;84;21051;-57
2022/02/05 11:38:20;;;;;;;15.72;10.88;;;;;;;12.45;40.08;93990.66;1719184;82;21054;-58
2022/02/05 11:40:49;;;;;;;11.95;8.80;;;;;;;12.50;39.70;93986.63;1714496;82;21455;-59
2022/02/05 11:43:27;;;;;;;11.33;8.90;;;;;;;12.30;39.99;93974.10;1699933;82;20995;-57
2022/02/05 11:46:19;;;;;;;13.88;9.38;;;;;;;12.51;39.97;93985.38;1669430;84;21479;-57
2022/02/05 11:48:55;;;;;;;13.20;9.95;;;;;;;12.74;39.58;93980.34;1691288;84;21060;-57
2022/02/05 11:51:33;;;;;;;12.30;9.63;;;;;;;12.32;39.87;93980.53;1700046;82;22219;-57
2022/02/05 11:54:05;;;;;;;10.63;9.08;;;;;;;11.80;40.73;93975.24;1713366;82;21065;-58
2022/02/05 11:56:51;;;;;;;11.95;10.03;;;;;;;11.17;41.82;93968.81;1735480;82;20975;-57
2022/02/05 11:59:32;;;;;;;13.05;10.48;;;;;;;10.52;43.27;93977.00;1735515;82;21460;-58
2022/02/05 12:02:18;;;;;;;11.75;9.93;;;;;;;10.10;44.44;93970.13;1735700;82;20928;-57
2022/02/05 12:04:43;;;;;;;31.77;28.62;;;;;;;9.78;45.34;93974.14;1735086;82;21542;-58
2022/02/05 12:07:11;;;;;;;25.97;17.95;;;;;;;9.36;46.33;93978.72;1724430;82;21044;-58
2022/02/05 12:09:44;;;;;;;29.35;18.30;;;;;;;9.09;47.13;93977.34;1721218;82;21008;-57
2022/02/05 12:12:36;;;;;;;29.70;19.98;;;;;;;8.87;48.14;93986.31;1710655;83;21147;-57
2022/02/05 12:15:19;;;;;;;26.02;18.77;;;;;;;8.68;49.04;93990.82;1721242;82;21441;-57
2022/02/05 12:21:12;;;;;;;24.18;16.52;;;;;;;7.98;50.94;93992.17;1714316;83;21052;-57
2022/02/05 12:26:25;;;;;;;34.78;25.32;;;;;;;7.74;52.17;93992.50;1715778;82;21169;-57
2022/02/05 12:28:56;;;;;;;41.55;37.05;;;;;;;7.59;52.58;93992.26;1723884;82;21636;-58
2022/02/05 12:31:33;;;;;;;28.62;21.55;;;;;;;7.53;52.85;93989.91;1710201;82;21521;-58
2022/02/05 12:34:02;;;;;;;28.38;20.08;;;;;;;7.56;52.94;93987.65;1729345;82;21008;-58
2022/02/05 12:36:35;;;;;;;31.55;20.60;;;;;;;7.61;52.87;93975.38;1724409;82;21014;-57
2022/02/05 12:39:13;;;;;;;;;;;;;;;7.65;53.06;93976.78;1740050;82;21115;-56
2022/02/05 12:41:50;;;;;;;23.95;16.80;;;;;;;7.65;53.50;93982.25;1728795;82;20171;-58
2022/02/05 12:44:20;;;;;;;22.20;16.57;;;;;;;7.63;53.65;93981.94;1714596;83;21477;-57
2022/02/05 12:46:55;;;;;;;27.25;18.52;;;;;;;7.71;53.54;93977.72;1714366;83;21502;-58
2022/02/05 12:49:29;;;;;;;23.18;17.73;;;;;;;7.75;53.57;93980.33;1714819;83;20998;-58
2022/02/05 12:51:50;;;;;;;28.20;18.02;;;;;;;7.78;53.56;93984.32;1733871;82;21160;-57
2022/02/05 12:54:24;;;;;;;27.30;19.50;;;;;;;7.87;53.33;93978.88;1743052;82;21432;-58
2022/02/05 12:56:51;;;;;;;31.02;20.60;;;;;;;7.96;53.24;93994.01;1742291;82;21022;-57
2022/02/05 12:59:26;;;;;;;29.75;21.37;;;;;;;7.94;53.25;93999.17;1713584;82;21007;-57
2022/02/05 13:02:06;;;;;;;29.70;19.32;;;;;;;7.84;53.54;94005.80;1741043;82;21024;-58
2022/02/05 13:04:39;;;;;;;31.07;21.15;;;;;;;7.67;54.08;94001.72;1742012;81;21116;-56
2022/02/05 13:07:18;;;;;;;36.42;23.83;;;;;;;7.46;54.50;94012.07;1725711;80;21053;-58
2022/02/05 13:09:59;;;;;;;33.70;21.68;;;;;;;7.22;55.11;94019.17;1736716;82;21007;-57
2022/02/05 13:12:34;;;;;;;34.55;22.40;;;;;;;7.01;55.81;94025.95;1723618;82;20992;-59
2022/02/05 13:15:17;;;;;;;18.98;14.38;;;;;;;6.79;56.78;94034.70;1714267;83;21498;-58
2022/02/05 13:17:50;;;;;;;21.70;14.55;;;;;;;6.55;57.28;94047.17;1717588;82;21105;-58
2022/02/05 13:25:46;;;;;;;13.38;11.38;;;;;;;6.09;58.07;94062.06;1748183;82;20991;-58
2022/02/05 13:36:21;;;;;;;15.93;12.73;;;;;;;5.48;59.21;94102.36;1719396;83;21052;-61
2022/02/05 13:41:45;;;;;;;31.77;22.10;;;;;;;5.40;60.70;94106.48;1743492;81;21051;-57
2022/02/05 13:44:13;;;;;;;38.42;23.65;;;;;;;5.28;61.55;94110.65;1722779;82;21137;-58
2022/02/05 13:46:37;;;;;;;34.30;22.45;;;;;;;5.19;62.22;94110.34;1730913;82;21138;-58
2022/02/05 13:49:18;;;;;;;37.08;23.80;;;;;;;5.05;62.79;94104.65;1720152;83;21431;-56
2022/02/05 13:51:45;;;;;;;35.73;24.02;;;;;;;4.95;63.51;94113.84;1719895;83;21454;-58
2022/02/05 13:54:12;;;;;;;34.10;23.50;;;;;;;4.83;64.25;94107.70;1724715;82;21074;-58
2022/02/05 13:56:39;;;;;;;39.98;24.92;;;;;;;4.70;64.85;94100.05;1748111;82;21797;-58
2022/02/05 13:59:05;;;;;;;47.13;28.50;;;;;;;4.63;65.27;94103.53;1656021;85;21015;-58
2022/02/05 14:01:35;;;;;;;41.88;24.82;;;;;;;4.61;65.33;94102.59;1697058;82;21022;-58
2022/02/05 14:04:25;;;;;;;43.80;23.15;;;;;;;4.64;65.44;94105.06;1747344;82;21027;-57
2022/02/05 14:06:56;;;;;;;21.48;15.18;;;;;;;4.72;65.19;94100.98;1732489;82;21034;-60
2022/02/05 14:09:29;;;;;;;23.32;16.60;;;;;;;4.73;64.56;94108.73;1748268;82;21194;-57
2022/02/05 14:11:57;;;;;;;21.48;15.90;;;;;;;4.73;64.51;94114.77;1748310;82;20971;-59
2022/02/05 14:14:31;;;;;;;31.73;20.00;;;;;;;4.68;64.21;94106.53;1747345;81;20987;-57
2022/02/05 14:17:00;;;;;;;23.15;17.42;;;;;;;4.67;64.29;94115.11;1740256;82;21090;-57
2022/02/05 14:19:29;;;;;;;41.28;36.90;;;;;;;4.67;63.82;94111.80;1647911;86;21489;-58
2022/02/05 14:21:58;;;;;;;35.43;26.23;;;;;;;4.73;63.82;94120.99;1713534;82;21858;-58
2022/02/05 14:24:30;;;;;;;40.65;24.30;;;;;;;4.74;64.53;94127.97;1735765;82;20955;-58
2022/02/05 14:27:16;;;;;;;44.38;27.25;;;;;;;4.68;64.87;94137.85;1712241;82;21177;-58
2022/02/05 14:29:56;;;;;;;41.23;27.58;;;;;;;4.61;65.35;94142.69;1731742;82;21101;-57